KSLN

Salina Regional Airport

Salina, Kansas, USA
METAR KSLN 151935Z 03012KT 10SM SCT018 OVC030 M09/M13 A3008 RMK AO2 SNE19 P0000 T10891128
Observed Flight Rules
Feb-15 @ 19:35 UTC (16 minutes ago) Marginal Visual Flight Rules
Wind Visibility Clouds
30° at 12 knots 10 miles
  • Scattered at 1,800' AGL
  • Overcast at 3,000' AGL
Temperatures Readings Precipitation
Current -9°C / 16°F
Dewpoint -13°C / 9°F
Humidity 73%
Altimeter 30.08" Hg
Pressure 1018.62 hPa
Elevation 385
Current Rain 0.01
METAR KSLN 151935Z 03012KT 10SM SCT018 OVC030 M09/M13 A3008 RMK AO2 SNE19 P0000 T10891128
Observed Flight Rules
Feb-15 @ 19:35 UTC
(16 minutes ago)
MVFR
Wind Visibility
30° at 12 knots 10 miles
Clouds
  • Scattered at 1,800' AGL
  • Overcast at 3,000' AGL
Temperature Dewpoint
-9°C / 16°F -13°C / 9°F
Humidity Altimeter Pressure
73% 30.08" Hg 1018.62 hPa
Current Rain
0.01